createdAt,value
2022-08-21T00:04:57.849Z,31.27
2022-08-21T00:10:05.222Z,30.43
2022-08-21T00:15:12.904Z,32.43
2022-08-21T00:20:23.368Z,32.50
2022-08-21T00:25:29.764Z,32.80
2022-08-21T00:30:35.533Z,31.57
2022-08-21T00:35:45.899Z,33.53
2022-08-21T00:40:58.608Z,34.67
2022-08-21T00:46:07.725Z,34.80
2022-08-21T00:51:23.533Z,38.43
2022-08-21T00:56:33.276Z,37.03
2022-08-21T01:01:38.795Z,38.93
2022-08-21T01:06:47.398Z,35.60
2022-08-21T01:11:53.495Z,31.57
2022-08-21T01:17:01.752Z,31.47
2022-08-21T01:22:13.390Z,29.23
2022-08-21T01:27:19.060Z,25.13
2022-08-21T01:32:24.704Z,22.47
2022-08-21T01:37:32.854Z,21.77
2022-08-21T01:42:39.539Z,21.60
2022-08-21T01:47:46.001Z,21.53
2022-08-21T01:52:56.798Z,19.20
2022-08-21T01:58:04.011Z,17.80
2022-08-21T02:03:10.593Z,16.33
2022-08-21T02:08:19.143Z,12.03
2022-08-21T02:13:25.411Z,13.57
2022-08-21T02:18:30.815Z,12.10
2022-08-21T02:23:39.537Z,11.67
2022-08-21T02:28:45.566Z,11.47
2022-08-21T02:33:50.973Z,10.57
2022-08-21T02:38:59.138Z,10.40
2022-08-21T02:44:06.338Z,10.70
2022-08-21T02:49:13.748Z,9.90
2022-08-21T02:54:22.377Z,10.07
2022-08-21T02:59:27.826Z,10.57
2022-08-21T03:04:33.132Z,10.63
2022-08-21T03:09:55.365Z,11.33
2022-08-21T03:15:01.967Z,10.60
2022-08-21T03:20:09.802Z,11.90
2022-08-21T03:25:20.361Z,11.63
2022-08-21T03:30:32.781Z,11.53
2022-08-21T03:35:38.987Z,12.00
2022-08-21T03:40:47.909Z,11.67
2022-08-21T03:45:53.725Z,12.50
2022-08-21T03:50:59.147Z,11.33
2022-08-21T03:56:08.937Z,11.87
2022-08-21T04:01:16.487Z,11.70
2022-08-21T04:06:22.652Z,10.90
2022-08-21T04:11:30.844Z,10.70
2022-08-21T04:16:36.054Z,11.77
2022-08-21T04:21:42.002Z,10.87
2022-08-21T04:26:51.855Z,11.83
2022-08-21T04:31:56.943Z,11.17
2022-08-21T04:37:01.974Z,11.53
2022-08-21T04:42:11.865Z,11.13
2022-08-21T04:47:17.644Z,10.70
2022-08-21T04:52:27.089Z,11.70
2022-08-21T04:57:48.687Z,11.70
2022-08-21T05:02:58.009Z,11.13
2022-08-21T05:08:10.188Z,10.83
2022-08-21T05:13:20.944Z,12.00
2022-08-21T05:18:26.394Z,11.50
2022-08-21T05:23:31.810Z,12.07
2022-08-21T05:28:39.632Z,10.87
2022-08-21T05:33:46.694Z,11.90
2022-08-21T05:38:55.216Z,11.60
2022-08-21T05:44:03.042Z,12.27
2022-08-21T05:49:16.171Z,11.00
2022-08-21T05:54:25.095Z,11.67
2022-08-21T05:59:34.255Z,12.23
2022-08-21T06:04:39.977Z,12.70
2022-08-21T06:09:46.098Z,14.63
2022-08-21T06:14:54.569Z,15.37
2022-08-21T06:20:00.147Z,14.93
2022-08-21T06:25:09.331Z,16.90
2022-08-21T06:35:42.890Z,16.97
2022-08-21T06:40:49.959Z,16.60
2022-08-21T06:51:29.365Z,18.07
2022-08-21T06:56:38.070Z,17.87
2022-08-21T07:01:48.487Z,17.83
2022-08-21T07:06:57.407Z,18.00
2022-08-21T07:23:37.045Z,17.63
2022-08-21T08:01:50.854Z,14.00
2022-08-21T18:32:50.122Z,2.20
2022-08-21T18:37:54.952Z,2.07
2022-08-21T18:43:04.195Z,2.33
2022-08-21T18:48:14.821Z,2.00
2022-08-21T18:53:27.586Z,2.33
2022-08-21T18:58:34.103Z,2.60
2022-08-21T19:03:41.824Z,2.63
2022-08-21T19:08:47.825Z,2.60
2022-08-21T19:13:55.152Z,2.40
2022-08-21T19:19:04.081Z,2.43
2022-08-21T19:24:17.597Z,2.30
2022-08-21T19:29:34.640Z,2.67
2022-08-21T19:34:44.421Z,2.67
2022-08-21T19:39:51.970Z,2.60
2022-08-21T19:44:58.489Z,3.00
2022-08-21T19:55:35.056Z,4.03
2022-08-21T20:00:40.028Z,4.47
2022-08-21T20:05:54.057Z,4.27
2022-08-21T20:11:02.548Z,4.97
2022-08-21T20:16:11.888Z,4.03
2022-08-21T20:21:20.721Z,4.93
2022-08-21T20:26:26.557Z,4.77
2022-08-21T20:31:31.416Z,4.20
2022-08-21T20:36:41.886Z,3.90
2022-08-21T20:41:49.221Z,3.60
2022-08-21T20:46:54.126Z,3.90
2022-08-21T20:52:07.482Z,3.67
2022-08-21T20:57:21.892Z,3.43
2022-08-21T21:03:04.227Z,3.20
2022-08-21T21:08:23.966Z,3.27
2022-08-21T21:13:35.600Z,3.70
2022-08-21T21:18:45.341Z,3.33
2022-08-21T21:24:06.161Z,3.60
2022-08-21T21:29:16.568Z,3.00
2022-08-21T21:34:22.527Z,3.30
2022-08-21T21:39:37.014Z,3.30
2022-08-21T21:44:57.630Z,3.70
2022-08-21T21:50:24.486Z,3.90
2022-08-21T21:55:50.205Z,3.90
2022-08-21T22:01:03.245Z,3.43
2022-08-21T22:06:15.687Z,3.50
2022-08-21T22:11:31.828Z,3.17
2022-08-21T22:16:41.192Z,3.30
2022-08-21T22:21:53.185Z,3.80
2022-08-21T22:27:04.823Z,3.23
2022-08-21T22:32:13.345Z,4.77
2022-08-21T22:37:19.795Z,4.00
2022-08-21T22:42:31.580Z,3.70
2022-08-21T22:47:41.472Z,3.73
2022-08-21T22:52:50.836Z,3.57
2022-08-21T22:58:11.568Z,3.17
2022-08-21T23:08:52.794Z,3.23
2022-08-21T23:14:00.461Z,3.60
2022-08-21T23:19:15.420Z,3.50
2022-08-21T23:24:46.739Z,3.90
2022-08-21T23:30:18.603Z,3.67
2022-08-21T23:35:46.810Z,3.07
2022-08-21T23:40:57.356Z,3.93
2022-08-21T23:46:32.439Z,3.60
2022-08-21T23:51:47.005Z,3.20
2022-08-21T23:57:12.197Z,3.40
